createdAt,value
2023-01-31T00:01:40.092Z,-0.80
2023-01-31T00:04:09.946Z,-0.82
2023-01-31T00:06:40.280Z,-0.85
2023-01-31T00:09:08.781Z,-0.79
2023-01-31T00:11:36.097Z,-0.81
2023-01-31T00:14:05.074Z,-0.73
2023-01-31T00:16:31.699Z,-0.72
2023-01-31T00:18:58.339Z,-0.66
2023-01-31T00:21:27.634Z,-0.65
2023-01-31T00:23:55.759Z,-0.67
2023-01-31T00:26:29.910Z,-0.66
2023-01-31T00:28:58.121Z,-0.71
2023-01-31T00:31:26.644Z,-0.70
2023-01-31T00:33:54.556Z,-0.70
2023-01-31T00:36:23.821Z,-0.75
2023-01-31T00:38:55.879Z,-0.77
2023-01-31T00:41:24.192Z,-0.80
2023-01-31T00:43:51.634Z,-0.81
2023-01-31T00:46:22.394Z,-1.00
2023-01-31T00:48:49.092Z,-0.78
2023-01-31T00:51:19.738Z,-0.94
2023-01-31T00:53:47.155Z,-0.86
2023-01-31T00:56:16.792Z,-0.87
2023-01-31T00:58:43.988Z,-0.84
2023-01-31T01:01:16.938Z,-0.86
2023-01-31T01:03:45.239Z,-0.84
2023-01-31T01:06:13.460Z,-0.85
2023-01-31T01:08:41.253Z,-0.82
2023-01-31T01:11:10.280Z,-0.82
2023-01-31T01:13:37.371Z,-0.82
2023-01-31T01:16:08.961Z,-0.83
2023-01-31T01:18:44.910Z,-0.85
2023-01-31T01:21:15.273Z,-0.82
2023-01-31T01:23:49.125Z,-0.78
2023-01-31T01:26:19.176Z,-0.78
2023-01-31T01:28:46.904Z,-0.81
2023-01-31T01:31:16.531Z,-0.81
2023-01-31T01:33:44.680Z,-0.81
2023-01-31T01:36:13.413Z,-0.84
2023-01-31T01:38:41.412Z,-0.84
2023-01-31T01:41:08.559Z,-0.84
2023-01-31T01:43:51.903Z,-0.80
2023-01-31T01:46:47.408Z,-0.76
2023-01-31T01:49:35.207Z,-0.82
2023-01-31T01:52:06.738Z,-0.90
2023-01-31T01:54:43.544Z,-0.79
2023-01-31T01:57:13.415Z,-0.77
2023-01-31T01:59:46.763Z,-0.80
2023-01-31T02:02:14.655Z,-0.78
2023-01-31T02:04:44.783Z,-0.73
2023-01-31T02:07:11.423Z,-0.69
2023-01-31T02:09:57.203Z,-0.71
2023-01-31T02:12:25.101Z,-0.69
2023-01-31T02:14:53.076Z,-0.67
2023-01-31T02:17:20.379Z,-0.64
2023-01-31T02:20:09.028Z,-0.69
2023-01-31T02:23:09.678Z,-0.65
2023-01-31T02:26:07.097Z,-0.66
2023-01-31T02:29:01.567Z,-0.63
2023-01-31T02:32:03.719Z,-0.61
2023-01-31T02:34:48.504Z,-0.60
2023-01-31T02:37:27.783Z,-0.56
2023-01-31T02:40:12.997Z,-0.57
2023-01-31T02:43:06.814Z,-0.60
2023-01-31T02:46:01.072Z,-0.62
2023-01-31T02:48:38.884Z,-0.60
2023-01-31T02:51:12.787Z,-0.71
2023-01-31T02:54:06.063Z,-0.64
2023-01-31T02:56:36.940Z,-0.70
2023-01-31T02:59:08.791Z,-0.66
2023-01-31T03:02:00.871Z,-0.65
2023-01-31T03:04:32.132Z,-0.71
2023-01-31T03:07:02.853Z,-0.63
2023-01-31T03:09:36.951Z,-0.68
2023-01-31T03:12:19.467Z,-0.76
2023-01-31T03:14:55.369Z,-0.69
2023-01-31T03:17:33.203Z,-0.67
2023-01-31T03:20:21.624Z,-0.66
2023-01-31T03:22:57.151Z,-0.64
2023-01-31T03:25:27.654Z,-0.71
2023-01-31T03:27:57.823Z,-0.78
2023-01-31T03:30:47.816Z,-0.71
2023-01-31T03:33:27.349Z,-0.76
2023-01-31T03:36:04.457Z,-0.77
2023-01-31T03:38:35.024Z,-0.77
2023-01-31T03:41:20.718Z,-0.77
2023-01-31T03:44:12.946Z,-0.80
2023-01-31T03:46:44.817Z,-0.82
2023-01-31T03:49:15.292Z,-0.81
2023-01-31T03:51:46.572Z,-0.83
2023-01-31T03:54:20.362Z,-0.83
2023-01-31T03:56:55.064Z,-0.82
2023-01-31T03:59:28.274Z,-0.82
2023-01-31T04:01:59.682Z,-0.84
2023-01-31T04:04:32.973Z,-0.85
2023-01-31T04:07:01.339Z,-0.88
2023-01-31T04:09:28.079Z,-0.88
2023-01-31T04:11:54.616Z,-0.90
2023-01-31T04:14:21.229Z,-0.98
2023-01-31T04:16:47.943Z,-0.98
2023-01-31T04:19:14.625Z,-1.01
2023-01-31T04:21:41.155Z,-1.06
2023-01-31T04:24:10.207Z,-1.08
2023-01-31T04:26:37.065Z,-1.02
2023-01-31T04:29:04.630Z,-1.00
2023-01-31T04:31:31.419Z,-0.99
2023-01-31T04:33:58.454Z,-1.01
2023-01-31T04:36:25.798Z,-1.02
2023-01-31T04:38:52.470Z,-1.04
2023-01-31T04:41:19.388Z,-1.16
2023-01-31T04:43:45.997Z,-1.04
2023-01-31T04:46:12.583Z,-0.99
2023-01-31T04:48:40.398Z,-0.95
2023-01-31T04:51:07.663Z,-0.97
2023-01-31T04:53:34.354Z,-1.01
2023-01-31T04:56:01.045Z,-1.00
2023-01-31T04:58:27.645Z,-1.09
2023-01-31T05:00:54.881Z,-1.01
2023-01-31T05:03:21.578Z,-1.01
2023-01-31T05:05:49.107Z,-1.04
2023-01-31T05:08:15.737Z,-1.05
2023-01-31T05:10:43.155Z,-1.04
2023-01-31T05:13:11.513Z,-1.05
2023-01-31T05:15:38.550Z,-1.04
2023-01-31T05:18:05.608Z,-1.11
2023-01-31T05:20:40.986Z,-1.10
2023-01-31T05:23:07.991Z,-1.15
2023-01-31T05:25:36.097Z,-1.10
2023-01-31T05:28:04.917Z,-1.08
2023-01-31T05:30:32.450Z,-1.12
2023-01-31T05:32:59.209Z,-1.09
2023-01-31T05:35:25.937Z,-1.09
2023-01-31T05:37:55.628Z,-1.07
2023-01-31T05:40:24.227Z,-1.15
2023-01-31T05:43:11.184Z,-1.04
2023-01-31T05:45:38.090Z,-1.03
2023-01-31T05:48:04.943Z,-1.04
2023-01-31T05:50:31.558Z,-1.08
2023-01-31T05:53:00.867Z,-1.05
2023-01-31T05:55:27.941Z,-1.12
2023-01-31T05:57:54.719Z,-1.13
2023-01-31T06:00:22.405Z,-1.24
2023-01-31T06:02:49.427Z,-1.08
2023-01-31T06:05:16.537Z,-1.05
2023-01-31T06:07:43.193Z,-1.07
2023-01-31T06:10:11.513Z,-1.05
2023-01-31T06:12:38.259Z,-1.06
2023-01-31T06:15:05.300Z,-1.07
2023-01-31T06:17:32.006Z,-1.01
2023-01-31T06:19:59.111Z,-1.03
2023-01-31T06:22:25.830Z,-1.05
2023-01-31T06:24:52.434Z,-1.09
2023-01-31T06:27:19.105Z,-1.17
2023-01-31T06:29:45.737Z,-1.11
2023-01-31T06:32:12.380Z,-1.09
2023-01-31T06:34:38.975Z,-1.03
2023-01-31T06:37:09.272Z,-1.07
2023-01-31T06:39:35.783Z,-1.04
2023-01-31T06:42:02.593Z,-1.03
2023-01-31T06:44:29.175Z,-1.02
2023-01-31T06:46:56.121Z,-1.01
2023-01-31T06:49:22.749Z,-0.99
2023-01-31T06:51:49.334Z,-0.99
2023-01-31T06:54:15.900Z,-0.95
2023-01-31T06:56:42.666Z,-0.96
2023-01-31T06:59:09.186Z,-1.04
2023-01-31T07:01:35.788Z,-0.92
2023-01-31T07:04:02.538Z,-0.89
2023-01-31T07:06:29.133Z,-0.93
2023-01-31T07:08:56.163Z,-0.89
2023-01-31T07:11:22.945Z,-0.93
2023-01-31T07:13:50.510Z,-0.92
2023-01-31T07:16:18.385Z,-0.87
2023-01-31T07:18:45.070Z,-0.85
2023-01-31T07:21:11.679Z,-0.82
2023-01-31T07:23:38.269Z,-0.78
2023-01-31T07:26:06.221Z,-0.75
2023-01-31T07:28:32.934Z,-0.70
2023-01-31T07:31:07.493Z,-0.68
2023-01-31T07:33:34.386Z,-0.66
2023-01-31T07:36:05.043Z,-0.58
2023-01-31T07:38:33.513Z,-0.60
2023-01-31T07:41:04.635Z,-0.56
2023-01-31T07:45:59.433Z,-0.56
2023-01-31T07:52:21.297Z,-0.44
2023-01-31T07:58:24.584Z,-0.34
2023-01-31T08:04:28.105Z,-0.21
2023-01-31T08:10:34.279Z,-0.03
2023-01-31T08:16:38.694Z,0.08
2023-01-31T08:19:05.685Z,0.09
2023-01-31T08:21:32.961Z,-0.07
2023-01-31T08:23:59.889Z,-0.05
2023-01-31T08:26:26.686Z,-0.09
2023-01-31T08:28:56.342Z,-0.11
2023-01-31T08:31:25.898Z,-0.04
2023-01-31T08:33:53.556Z,-0.03
2023-01-31T08:36:31.935Z,0.03
2023-01-31T08:38:59.077Z,-0.02
2023-01-31T08:41:27.004Z,-0.08
2023-01-31T08:43:58.119Z,-0.11
2023-01-31T08:46:27.385Z,-0.07
2023-01-31T08:48:55.118Z,-0.05
2023-01-31T08:51:22.555Z,-0.12
2023-01-31T08:53:49.429Z,-0.16
2023-01-31T08:56:16.421Z,-0.18
2023-01-31T08:58:44.758Z,-0.13
2023-01-31T09:01:16.323Z,-0.12
2023-01-31T09:03:45.158Z,-0.13
2023-01-31T09:06:17.185Z,-0.14
2023-01-31T09:08:44.242Z,-0.11
2023-01-31T09:11:11.271Z,-0.18
2023-01-31T09:13:37.851Z,-0.24
2023-01-31T09:16:10.474Z,-0.14
2023-01-31T09:18:39.606Z,-0.16
2023-01-31T09:21:13.621Z,-0.18
2023-01-31T09:23:43.589Z,-0.20
2023-01-31T09:26:15.027Z,-0.15
2023-01-31T09:28:43.396Z,-0.21
2023-01-31T09:31:20.944Z,-0.21
2023-01-31T09:33:47.984Z,-0.27
2023-01-31T09:36:20.645Z,-0.22
2023-01-31T09:38:47.865Z,-0.23
2023-01-31T09:41:30.900Z,-0.26
2023-01-31T09:44:21.017Z,-0.35
2023-01-31T09:47:16.913Z,-0.27
2023-01-31T09:49:51.525Z,-0.25
2023-01-31T09:52:18.712Z,-0.22
2023-01-31T09:54:45.760Z,-0.18
2023-01-31T09:57:12.275Z,-0.08
2023-01-31T10:00:07.885Z,-0.01
2023-01-31T10:03:09.923Z,0.04
2023-01-31T10:06:04.028Z,0.09
2023-01-31T10:08:46.733Z,0.12
2023-01-31T10:11:43.563Z,0.22
2023-01-31T10:14:33.107Z,0.25
2023-01-31T10:17:12.639Z,0.24
2023-01-31T10:19:49.816Z,0.23
2023-01-31T10:22:26.552Z,0.22
2023-01-31T10:24:59.675Z,0.13
2023-01-31T10:27:52.096Z,0.24
2023-01-31T10:30:24.111Z,0.11
2023-01-31T10:32:56.173Z,0.28
2023-01-31T10:35:31.860Z,0.37
2023-01-31T10:38:11.360Z,0.42
2023-01-31T10:40:40.098Z,0.41
2023-01-31T10:43:20.559Z,0.35
2023-01-31T10:45:47.138Z,0.34
2023-01-31T10:48:26.873Z,0.38
2023-01-31T10:51:21.634Z,0.42
2023-01-31T10:54:32.098Z,0.48
2023-01-31T10:56:59.259Z,0.42
2023-01-31T10:59:37.591Z,0.45
2023-01-31T11:02:05.541Z,0.40
2023-01-31T11:04:38.787Z,0.32
2023-01-31T11:07:06.211Z,0.26
2023-01-31T11:09:37.397Z,0.24
2023-01-31T11:12:06.807Z,0.14
2023-01-31T11:14:33.584Z,0.08
2023-01-31T11:17:17.905Z,0.02
2023-01-31T11:19:49.958Z,0.02
2023-01-31T11:22:24.778Z,0.01
2023-01-31T11:24:52.400Z,0.00
2023-01-31T11:27:33.437Z,0.02
2023-01-31T11:30:00.696Z,-0.01
2023-01-31T11:32:33.069Z,-0.02
2023-01-31T11:35:07.520Z,0.03
2023-01-31T11:37:35.071Z,0.05
2023-01-31T11:40:26.984Z,-0.18
2023-01-31T11:43:06.312Z,0.01
2023-01-31T11:46:00.468Z,0.03
2023-01-31T11:48:30.642Z,0.01
2023-01-31T11:51:00.611Z,-0.03
2023-01-31T11:53:39.194Z,-0.01
2023-01-31T11:56:19.262Z,0.06
2023-01-31T11:58:49.232Z,0.09
2023-01-31T12:01:18.473Z,0.13
2023-01-31T12:04:04.105Z,0.14
2023-01-31T12:06:42.262Z,0.17
2023-01-31T12:09:27.106Z,0.08
2023-01-31T12:11:59.907Z,0.14
2023-01-31T12:14:40.686Z,0.16
2023-01-31T12:17:10.980Z,0.15
2023-01-31T12:19:45.590Z,0.14
2023-01-31T12:22:39.090Z,0.22
2023-01-31T12:25:16.654Z,0.33
2023-01-31T12:28:09.002Z,0.45
2023-01-31T12:31:03.275Z,0.61
2023-01-31T12:33:38.773Z,0.62
2023-01-31T12:36:25.895Z,0.59
2023-01-31T12:39:12.312Z,0.67
2023-01-31T12:41:41.773Z,0.75
2023-01-31T12:45:10.200Z,0.79
2023-01-31T12:48:05.318Z,0.90
2023-01-31T12:50:47.971Z,0.95
2023-01-31T12:53:25.070Z,0.98
2023-01-31T12:55:54.542Z,0.95
2023-01-31T12:58:42.238Z,0.95
2023-01-31T13:01:42.710Z,0.91
2023-01-31T13:04:33.534Z,0.79
2023-01-31T13:07:03.614Z,0.75
2023-01-31T13:09:35.789Z,0.76
2023-01-31T13:12:08.145Z,0.77
2023-01-31T13:14:45.316Z,0.77
2023-01-31T13:17:23.027Z,0.83
2023-01-31T13:19:55.728Z,0.82
2023-01-31T13:22:47.066Z,0.77
2023-01-31T13:25:26.174Z,0.82
2023-01-31T13:28:20.857Z,0.66
2023-01-31T13:31:05.256Z,0.84
2023-01-31T13:33:45.249Z,0.07
2023-01-31T13:40:15.635Z,0.56
2023-01-31T13:42:42.326Z,1.03
2023-01-31T13:45:11.336Z,1.21
2023-01-31T13:47:47.547Z,1.25
2023-01-31T13:50:34.208Z,1.26
2023-01-31T13:53:04.508Z,1.20
2023-01-31T13:55:37.814Z,1.12
2023-01-31T13:58:26.600Z,1.11
2023-01-31T14:01:02.655Z,1.01
2023-01-31T14:03:29.300Z,0.92
2023-01-31T14:05:59.033Z,0.94
2023-01-31T14:08:30.370Z,0.82
2023-01-31T14:11:00.329Z,0.83
2023-01-31T14:14:10.233Z,0.72
2023-01-31T14:16:42.855Z,0.65
2023-01-31T14:19:24.590Z,0.65
2023-01-31T14:22:14.009Z,0.56
2023-01-31T14:24:46.583Z,0.53
2023-01-31T14:27:30.527Z,0.52
2023-01-31T14:29:59.279Z,0.53
2023-01-31T14:32:48.069Z,0.43
2023-01-31T14:35:14.626Z,0.46
2023-01-31T14:38:15.510Z,0.37
2023-01-31T14:40:57.030Z,0.35
2023-01-31T14:43:50.755Z,0.30
2023-01-31T14:46:35.494Z,0.23
2023-01-31T14:49:33.491Z,0.16
2023-01-31T14:52:29.063Z,0.16
2023-01-31T14:55:19.800Z,0.22
2023-01-31T14:57:48.026Z,0.22
2023-01-31T15:00:14.600Z,0.16
2023-01-31T15:03:09.062Z,0.11
2023-01-31T15:05:35.667Z,0.10
2023-01-31T15:08:14.132Z,0.08
2023-01-31T15:11:02.225Z,0.02
2023-01-31T15:13:50.760Z,-0.07
2023-01-31T15:16:37.700Z,-0.10
2023-01-31T15:19:19.501Z,-0.14
2023-01-31T15:21:55.443Z,-0.13
2023-01-31T15:24:31.521Z,-0.16
2023-01-31T15:27:00.392Z,-0.27
2023-01-31T15:29:33.954Z,-0.25
2023-01-31T15:32:20.207Z,-0.21
2023-01-31T15:35:20.000Z,-0.27
2023-01-31T15:37:55.095Z,-0.33
2023-01-31T15:40:25.450Z,-0.50
2023-01-31T15:42:52.077Z,-0.37
2023-01-31T15:45:28.293Z,-0.41
2023-01-31T15:47:59.819Z,-0.42
2023-01-31T15:50:30.520Z,-0.48
2023-01-31T15:53:02.397Z,-0.49
2023-01-31T15:55:29.062Z,-0.69
2023-01-31T15:57:59.298Z,-0.52
2023-01-31T16:00:26.338Z,-0.52
2023-01-31T16:03:02.657Z,-0.54
2023-01-31T16:05:33.638Z,-0.56
2023-01-31T16:08:01.412Z,-0.60
2023-01-31T16:10:30.140Z,-0.66
2023-01-31T16:12:58.967Z,-0.65
2023-01-31T16:15:31.632Z,-0.66
2023-01-31T16:18:06.543Z,-0.67
2023-01-31T16:20:51.002Z,-0.70
2023-01-31T16:23:23.730Z,-0.73
2023-01-31T16:25:57.677Z,-0.76
2023-01-31T16:28:28.093Z,-0.74
2023-01-31T16:31:08.905Z,-0.77
2023-01-31T16:33:39.507Z,-0.77
2023-01-31T16:36:17.376Z,-0.81
2023-01-31T16:39:08.202Z,-0.80
2023-01-31T16:41:43.929Z,-0.86
2023-01-31T16:44:28.414Z,-0.86
2023-01-31T16:46:56.812Z,-0.90
2023-01-31T16:49:32.539Z,-0.82
2023-01-31T16:52:24.519Z,-0.81
2023-01-31T16:54:53.227Z,-0.84
2023-01-31T16:57:38.272Z,-0.82
2023-01-31T17:00:27.635Z,-0.84
2023-01-31T17:02:56.508Z,-0.90
2023-01-31T17:05:29.275Z,-0.89
2023-01-31T17:07:57.434Z,-0.88
2023-01-31T17:10:29.098Z,-0.88
2023-01-31T17:13:22.862Z,-0.87
2023-01-31T17:15:50.269Z,-0.88
2023-01-31T17:18:17.137Z,-0.87
2023-01-31T17:20:49.246Z,-1.04
2023-01-31T17:23:16.002Z,-0.99
2023-01-31T17:25:43.409Z,-0.96
2023-01-31T17:28:11.119Z,-0.94
2023-01-31T17:30:40.169Z,-0.95
2023-01-31T17:33:06.900Z,-0.94
2023-01-31T17:35:38.923Z,-1.02
2023-01-31T17:38:06.261Z,-1.01
2023-01-31T17:40:33.442Z,-0.98
2023-01-31T17:43:04.041Z,-1.03
2023-01-31T17:45:32.251Z,-0.99
2023-01-31T17:47:58.885Z,-1.04
2023-01-31T17:50:26.868Z,-1.01
2023-01-31T17:52:54.408Z,-0.99
2023-01-31T17:55:23.346Z,-1.00
2023-01-31T17:57:50.567Z,-0.96
2023-01-31T18:00:19.425Z,-0.92
2023-01-31T18:02:46.216Z,-0.93
2023-01-31T18:05:18.657Z,-0.91
2023-01-31T18:07:49.904Z,-0.96
2023-01-31T18:10:17.254Z,-0.96
2023-01-31T18:12:43.950Z,-0.99
2023-01-31T18:15:11.052Z,-1.01
2023-01-31T18:17:38.123Z,-1.01
2023-01-31T18:20:05.154Z,-1.15
2023-01-31T18:22:31.910Z,-0.98
2023-01-31T18:24:58.485Z,-1.10
2023-01-31T18:27:25.136Z,-0.98
2023-01-31T18:29:51.819Z,-1.00
2023-01-31T18:32:20.210Z,-1.02
2023-01-31T18:34:47.007Z,-1.04
2023-01-31T18:37:20.312Z,-1.09
2023-01-31T18:39:51.451Z,-1.07
2023-01-31T18:42:18.666Z,-1.01
2023-01-31T18:44:46.957Z,-1.00
2023-01-31T18:47:14.554Z,-1.05
2023-01-31T18:49:42.656Z,-1.00
2023-01-31T18:52:10.689Z,-1.19
2023-01-31T18:54:38.122Z,-1.05
2023-01-31T18:57:05.279Z,-1.03
2023-01-31T18:59:33.978Z,-1.11
2023-01-31T19:02:01.195Z,-1.06
2023-01-31T19:04:27.860Z,-1.06
2023-01-31T19:06:54.463Z,-0.99
2023-01-31T19:09:22.401Z,-0.99
2023-01-31T19:11:49.014Z,-1.01
2023-01-31T19:14:16.085Z,-1.02
2023-01-31T19:16:43.329Z,-1.01
2023-01-31T19:19:10.717Z,-1.02
2023-01-31T19:21:38.347Z,-1.01
2023-01-31T19:24:07.832Z,-0.99
2023-01-31T19:26:35.725Z,-1.00
2023-01-31T19:29:03.734Z,-1.00
2023-01-31T19:31:32.373Z,-1.00
2023-01-31T19:34:01.652Z,-1.02
2023-01-31T19:36:33.281Z,-1.04
2023-01-31T19:39:02.059Z,-0.98
2023-01-31T19:41:29.069Z,-1.02
2023-01-31T19:43:58.247Z,-1.03
2023-01-31T19:46:27.674Z,-1.07
2023-01-31T19:48:56.460Z,-1.02
2023-01-31T19:51:25.318Z,-0.96
2023-01-31T19:53:55.175Z,-1.01
2023-01-31T19:56:21.882Z,-0.96
2023-01-31T19:58:48.475Z,-1.00
2023-01-31T20:01:16.435Z,-1.01
2023-01-31T20:03:44.351Z,-1.06
2023-01-31T20:06:12.862Z,-1.02
2023-01-31T20:08:39.763Z,-1.12
2023-01-31T20:11:08.288Z,-1.01
2023-01-31T20:13:35.441Z,-1.00
2023-01-31T20:16:13.794Z,-1.01
2023-01-31T20:18:41.959Z,-1.00
2023-01-31T20:21:14.892Z,-1.03
2023-01-31T20:23:41.945Z,-1.01
2023-01-31T20:26:10.066Z,-1.06
2023-01-31T20:28:36.932Z,-1.04
2023-01-31T20:31:05.733Z,-1.01
2023-01-31T20:33:32.743Z,-1.00
2023-01-31T20:35:59.561Z,-1.01
2023-01-31T20:38:26.282Z,-1.07
2023-01-31T20:40:54.938Z,-0.97
2023-01-31T20:43:24.010Z,-0.96
2023-01-31T20:45:50.718Z,-0.94
2023-01-31T20:48:17.825Z,-0.94
2023-01-31T20:50:45.015Z,-0.98
2023-01-31T20:53:20.990Z,-0.90
2023-01-31T20:56:04.717Z,-0.90
2023-01-31T20:58:35.286Z,-0.94
2023-01-31T21:01:05.432Z,-0.92
2023-01-31T21:03:32.539Z,-1.01
2023-01-31T21:06:06.712Z,-0.97
2023-01-31T21:08:35.758Z,-0.99
2023-01-31T21:11:08.747Z,-1.11
2023-01-31T21:13:36.713Z,-1.01
2023-01-31T21:16:05.713Z,-1.03
2023-01-31T21:18:37.677Z,-1.02
2023-01-31T21:21:09.670Z,-1.03
2023-01-31T21:23:37.757Z,-1.00
2023-01-31T21:26:07.141Z,-1.01
2023-01-31T21:28:34.456Z,-0.96
2023-01-31T21:31:07.866Z,-0.95
2023-01-31T21:33:35.715Z,-0.96
2023-01-31T21:36:08.708Z,-1.09
2023-01-31T21:38:35.600Z,-1.01
2023-01-31T21:41:21.102Z,-1.00
2023-01-31T21:43:47.743Z,-0.99
2023-01-31T21:46:15.152Z,-0.94
2023-01-31T21:48:42.557Z,-0.94
2023-01-31T21:51:14.757Z,-0.93
2023-01-31T21:53:42.182Z,-0.93
2023-01-31T21:56:37.889Z,-0.90
2023-01-31T21:59:04.563Z,-0.90
2023-01-31T22:01:34.558Z,-0.90
2023-01-31T22:04:01.595Z,-0.98
2023-01-31T22:06:48.807Z,-0.92
2023-01-31T22:09:16.091Z,-0.90
2023-01-31T22:11:43.990Z,-0.99
2023-01-31T22:14:16.373Z,-0.98
2023-01-31T22:16:43.484Z,-0.88
2023-01-31T22:19:14.278Z,-0.93
2023-01-31T22:21:42.312Z,-0.92
2023-01-31T22:24:11.747Z,-0.95
2023-01-31T22:26:42.114Z,-0.95
2023-01-31T22:29:11.990Z,-0.95
2023-01-31T22:31:39.171Z,-0.96
2023-01-31T22:34:07.445Z,-1.04
2023-01-31T22:36:34.487Z,-0.92
2023-01-31T22:39:01.458Z,-0.89
2023-01-31T22:41:28.101Z,-0.89
2023-01-31T22:43:56.052Z,-0.93
2023-01-31T22:46:26.232Z,-0.87
2023-01-31T22:48:53.640Z,-0.86
2023-01-31T22:51:23.727Z,-0.86
2023-01-31T22:53:51.163Z,-0.83
2023-01-31T22:56:21.294Z,-0.86
2023-01-31T22:58:48.659Z,-0.84
2023-01-31T23:01:24.095Z,-0.85
2023-01-31T23:03:51.152Z,-0.88
2023-01-31T23:06:18.241Z,-0.86
2023-01-31T23:08:45.698Z,-0.83
2023-01-31T23:11:14.634Z,-0.80
2023-01-31T23:13:42.301Z,-0.82
2023-01-31T23:16:17.652Z,-0.81
2023-01-31T23:18:44.800Z,-0.83
2023-01-31T23:21:13.006Z,-0.82
2023-01-31T23:23:39.735Z,-0.85
2023-01-31T23:26:06.421Z,-0.98
2023-01-31T23:28:33.247Z,-0.82
2023-01-31T23:30:59.827Z,-0.76
2023-01-31T23:33:27.058Z,-0.75
2023-01-31T23:35:54.180Z,-0.75
2023-01-31T23:38:20.946Z,-0.70
2023-01-31T23:40:54.241Z,-0.72
2023-01-31T23:43:22.035Z,-0.74
2023-01-31T23:45:49.037Z,-0.80
2023-01-31T23:48:18.101Z,-0.80
2023-01-31T23:50:44.736Z,-0.79
2023-01-31T23:53:11.311Z,-0.82
2023-01-31T23:55:38.089Z,-0.84
2023-01-31T23:58:04.736Z,-0.80
